sensor_id;sensor_type;location;lat;lon;timestamp;P1;durP1;ratioP1;P2;durP2;ratioP2
4754;SDS011;2391;47.212;7.542;2023-02-01T00:01:35;5.27;;;3.70;;
4754;SDS011;2391;47.212;7.542;2023-02-01T00:04:01;3.97;;;3.57;;
4754;SDS011;2391;47.212;7.542;2023-02-01T00:06:27;5.00;;;4.00;;
4754;SDS011;2391;47.212;7.542;2023-02-01T00:08:53;6.33;;;3.93;;
4754;SDS011;2391;47.212;7.542;2023-02-01T00:11:20;4.33;;;3.93;;
4754;SDS011;2391;47.212;7.542;2023-02-01T00:13:47;5.07;;;3.90;;
4754;SDS011;2391;47.212;7.542;2023-02-01T00:16:14;3.97;;;3.50;;
4754;SDS011;2391;47.212;7.542;2023-02-01T00:18:44;4.90;;;3.67;;
4754;SDS011;2391;47.212;7.542;2023-02-01T00:21:15;6.30;;;3.60;;
4754;SDS011;2391;47.212;7.542;2023-02-01T00:23:43;3.30;;;3.00;;
4754;SDS011;2391;47.212;7.542;2023-02-01T00:26:19;6.70;;;4.27;;
4754;SDS011;2391;47.212;7.542;2023-02-01T00:28:47;5.90;;;4.37;;
4754;SDS011;2391;47.212;7.542;2023-02-01T00:31:13;4.17;;;3.77;;
4754;SDS011;2391;47.212;7.542;2023-02-01T00:33:40;4.67;;;3.90;;
4754;SDS011;2391;47.212;7.542;2023-02-01T00:36:06;5.60;;;4.30;;
4754;SDS011;2391;47.212;7.542;2023-02-01T00:38:36;4.63;;;3.93;;
4754;SDS011;2391;47.212;7.542;2023-02-01T00:43:33;5.00;;;4.07;;
4754;SDS011;2391;47.212;7.542;2023-02-01T00:46:00;5.57;;;5.00;;
4754;SDS011;2391;47.212;7.542;2023-02-01T00:48:26;5.20;;;4.70;;
4754;SDS011;2391;47.212;7.542;2023-02-01T00:50:53;6.80;;;4.67;;
4754;SDS011;2391;47.212;7.542;2023-02-01T00:53:19;5.60;;;4.07;;
4754;SDS011;2391;47.212;7.542;2023-02-01T00:55:45;7.30;;;5.00;;
4754;SDS011;2391;47.212;7.542;2023-02-01T00:58:12;5.67;;;4.50;;
4754;SDS011;2391;47.212;7.542;2023-02-01T01:00:38;6.57;;;4.57;;
4754;SDS011;2391;47.212;7.542;2023-02-01T01:03:04;6.53;;;4.77;;
4754;SDS011;2391;47.212;7.542;2023-02-01T01:05:35;4.47;;;4.07;;
4754;SDS011;2391;47.212;7.542;2023-02-01T01:08:00;5.03;;;4.43;;
4754;SDS011;2391;47.212;7.542;2023-02-01T01:10:26;7.17;;;5.43;;
4754;SDS011;2391;47.212;7.542;2023-02-01T01:12:52;4.03;;;3.63;;
4754;SDS011;2391;47.212;7.542;2023-02-01T01:15:17;6.70;;;5.10;;
4754;SDS011;2391;47.212;7.542;2023-02-01T01:17:43;5.30;;;4.60;;
4754;SDS011;2391;47.212;7.542;2023-02-01T01:20:09;7.47;;;5.27;;
4754;SDS011;2391;47.212;7.542;2023-02-01T01:22:36;10.07;;;4.90;;
4754;SDS011;2391;47.212;7.542;2023-02-01T01:25:02;6.50;;;4.60;;
4754;SDS011;2391;47.212;7.542;2023-02-01T01:27:28;6.37;;;5.20;;
4754;SDS011;2391;47.212;7.542;2023-02-01T01:29:53;5.90;;;5.17;;
4754;SDS011;2391;47.212;7.542;2023-02-01T01:32:19;7.40;;;4.93;;
4754;SDS011;2391;47.212;7.542;2023-02-01T01:34:45;5.77;;;5.17;;
4754;SDS011;2391;47.212;7.542;2023-02-01T01:37:11;9.00;;;5.00;;
4754;SDS011;2391;47.212;7.542;2023-02-01T01:39:36;8.27;;;5.30;;
4754;SDS011;2391;47.212;7.542;2023-02-01T01:42:02;7.77;;;5.87;;
4754;SDS011;2391;47.212;7.542;2023-02-01T01:47:25;7.00;;;5.13;;
4754;SDS011;2391;47.212;7.542;2023-02-01T01:49:52;5.77;;;5.10;;
4754;SDS011;2391;47.212;7.542;2023-02-01T01:52:18;7.47;;;5.03;;
4754;SDS011;2391;47.212;7.542;2023-02-01T01:54:46;6.97;;;4.70;;
4754;SDS011;2391;47.212;7.542;2023-02-01T01:57:14;6.77;;;6.10;;
4754;SDS011;2391;47.212;7.542;2023-02-01T01:59:59;5.43;;;4.40;;
4754;SDS011;2391;47.212;7.542;2023-02-01T02:02:25;6.53;;;5.23;;
4754;SDS011;2391;47.212;7.542;2023-02-01T02:04:51;6.50;;;5.07;;
4754;SDS011;2391;47.212;7.542;2023-02-01T02:07:18;11.33;;;5.90;;
4754;SDS011;2391;47.212;7.542;2023-02-01T02:09:46;6.57;;;5.00;;
4754;SDS011;2391;47.212;7.542;2023-02-01T02:12:12;5.67;;;5.13;;
4754;SDS011;2391;47.212;7.542;2023-02-01T02:14:38;5.60;;;4.60;;
4754;SDS011;2391;47.212;7.542;2023-02-01T02:17:12;7.20;;;5.73;;
4754;SDS011;2391;47.212;7.542;2023-02-01T02:28:20;7.23;;;5.17;;
4754;SDS011;2391;47.212;7.542;2023-02-01T02:45:21;7.17;;;4.93;;
4754;SDS011;2391;47.212;7.542;2023-02-01T02:48:12;5.83;;;5.03;;
4754;SDS011;2391;47.212;7.542;2023-02-01T02:50:58;10.17;;;4.73;;
4754;SDS011;2391;47.212;7.542;2023-02-01T02:56:32;8.07;;;4.97;;
4754;SDS011;2391;47.212;7.542;2023-02-01T02:59:19;5.50;;;4.30;;
4754;SDS011;2391;47.212;7.542;2023-02-01T03:02:06;6.70;;;5.10;;
4754;SDS011;2391;47.212;7.542;2023-02-01T03:04:52;8.17;;;4.40;;
4754;SDS011;2391;47.212;7.542;2023-02-01T03:16:13;6.17;;;5.07;;
4754;SDS011;2391;47.212;7.542;2023-02-01T03:21:33;7.80;;;4.73;;
4754;SDS011;2391;47.212;7.542;2023-02-01T03:26:54;7.13;;;4.87;;
4754;SDS011;2391;47.212;7.542;2023-02-01T03:29:22;6.47;;;4.47;;
4754;SDS011;2391;47.212;7.542;2023-02-01T03:31:51;5.90;;;4.80;;
4754;SDS011;2391;47.212;7.542;2023-02-01T03:34:17;7.33;;;4.77;;
4754;SDS011;2391;47.212;7.542;2023-02-01T03:36:48;4.97;;;4.47;;
4754;SDS011;2391;47.212;7.542;2023-02-01T03:39:17;5.67;;;5.10;;
4754;SDS011;2391;47.212;7.542;2023-02-01T03:41:51;7.27;;;5.00;;
4754;SDS011;2391;47.212;7.542;2023-02-01T03:44:22;8.33;;;4.90;;
4754;SDS011;2391;47.212;7.542;2023-02-01T03:47:03;4.93;;;4.40;;
4754;SDS011;2391;47.212;7.542;2023-02-01T03:49:45;6.00;;;4.83;;
4754;SDS011;2391;47.212;7.542;2023-02-01T03:52:17;9.13;;;5.33;;
4754;SDS011;2391;47.212;7.542;2023-02-01T03:54:45;5.90;;;4.73;;
4754;SDS011;2391;47.212;7.542;2023-02-01T03:57:13;9.90;;;4.60;;
4754;SDS011;2391;47.212;7.542;2023-02-01T03:59:42;5.27;;;4.57;;
4754;SDS011;2391;47.212;7.542;2023-02-01T04:02:09;4.83;;;4.43;;
4754;SDS011;2391;47.212;7.542;2023-02-01T04:04:36;8.70;;;5.60;;
4754;SDS011;2391;47.212;7.542;2023-02-01T04:07:04;5.63;;;4.40;;
4754;SDS011;2391;47.212;7.542;2023-02-01T04:09:30;6.50;;;4.87;;
4754;SDS011;2391;47.212;7.542;2023-02-01T04:11:55;5.23;;;4.27;;
4754;SDS011;2391;47.212;7.542;2023-02-01T04:14:21;5.63;;;4.87;;
4754;SDS011;2391;47.212;7.542;2023-02-01T04:16:47;8.00;;;5.50;;
4754;SDS011;2391;47.212;7.542;2023-02-01T04:19:13;7.13;;;4.40;;
4754;SDS011;2391;47.212;7.542;2023-02-01T04:21:39;4.80;;;4.23;;
4754;SDS011;2391;47.212;7.542;2023-02-01T04:24:05;7.10;;;4.80;;
4754;SDS011;2391;47.212;7.542;2023-02-01T04:26:31;7.93;;;4.87;;
4754;SDS011;2391;47.212;7.542;2023-02-01T04:28:57;7.57;;;5.23;;
4754;SDS011;2391;47.212;7.542;2023-02-01T04:31:23;8.53;;;4.47;;
4754;SDS011;2391;47.212;7.542;2023-02-01T04:33:52;6.20;;;4.60;;
4754;SDS011;2391;47.212;7.542;2023-02-01T04:36:20;5.20;;;4.30;;
4754;SDS011;2391;47.212;7.542;2023-02-01T04:38:50;13.00;;;5.20;;
4754;SDS011;2391;47.212;7.542;2023-02-01T04:41:17;8.43;;;5.50;;
4754;SDS011;2391;47.212;7.542;2023-02-01T04:43:49;6.00;;;4.50;;
4754;SDS011;2391;47.212;7.542;2023-02-01T04:46:12;5.60;;;4.80;;
4754;SDS011;2391;47.212;7.542;2023-02-01T04:48:38;6.27;;;4.80;;
4754;SDS011;2391;47.212;7.542;2023-02-01T04:51:04;6.90;;;5.27;;
4754;SDS011;2391;47.212;7.542;2023-02-01T04:53:30;5.67;;;4.90;;
4754;SDS011;2391;47.212;7.542;2023-02-01T04:55:56;6.77;;;4.87;;
4754;SDS011;2391;47.212;7.542;2023-02-01T04:58:21;6.13;;;4.97;;
4754;SDS011;2391;47.212;7.542;2023-02-01T05:00:47;7.00;;;5.23;;
4754;SDS011;2391;47.212;7.542;2023-02-01T05:03:13;7.30;;;4.70;;
4754;SDS011;2391;47.212;7.542;2023-02-01T05:05:39;5.80;;;4.60;;
4754;SDS011;2391;47.212;7.542;2023-02-01T05:08:05;7.33;;;4.70;;
4754;SDS011;2391;47.212;7.542;2023-02-01T05:10:31;7.50;;;5.00;;
4754;SDS011;2391;47.212;7.542;2023-02-01T05:12:56;7.47;;;5.13;;
4754;SDS011;2391;47.212;7.542;2023-02-01T05:15:41;6.33;;;4.60;;
4754;SDS011;2391;47.212;7.542;2023-02-01T05:18:07;4.80;;;4.20;;
4754;SDS011;2391;47.212;7.542;2023-02-01T05:20:32;6.40;;;5.17;;
4754;SDS011;2391;47.212;7.542;2023-02-01T05:22:58;8.07;;;5.67;;
4754;SDS011;2391;47.212;7.542;2023-02-01T05:25:24;8.70;;;5.20;;
4754;SDS011;2391;47.212;7.542;2023-02-01T05:27:50;4.87;;;4.30;;
4754;SDS011;2391;47.212;7.542;2023-02-01T05:30:16;5.40;;;4.20;;
4754;SDS011;2391;47.212;7.542;2023-02-01T05:32:44;6.70;;;4.70;;
4754;SDS011;2391;47.212;7.542;2023-02-01T05:35:10;7.33;;;5.37;;
4754;SDS011;2391;47.212;7.542;2023-02-01T05:37:36;8.30;;;5.40;;
4754;SDS011;2391;47.212;7.542;2023-02-01T05:40:06;6.73;;;5.27;;
4754;SDS011;2391;47.212;7.542;2023-02-01T05:42:29;6.50;;;4.77;;
4754;SDS011;2391;47.212;7.542;2023-02-01T05:44:55;5.30;;;4.70;;
4754;SDS011;2391;47.212;7.542;2023-02-01T05:47:21;6.00;;;4.63;;
4754;SDS011;2391;47.212;7.542;2023-02-01T05:49:47;5.80;;;4.17;;
4754;SDS011;2391;47.212;7.542;2023-02-01T05:52:13;6.33;;;5.30;;
4754;SDS011;2391;47.212;7.542;2023-02-01T05:54:41;8.77;;;4.87;;
4754;SDS011;2391;47.212;7.542;2023-02-01T05:57:06;7.70;;;5.10;;
4754;SDS011;2391;47.212;7.542;2023-02-01T05:59:32;4.80;;;4.40;;
4754;SDS011;2391;47.212;7.542;2023-02-01T06:01:58;6.10;;;5.03;;
4754;SDS011;2391;47.212;7.542;2023-02-01T06:04:27;7.73;;;5.13;;
4754;SDS011;2391;47.212;7.542;2023-02-01T06:06:53;5.40;;;4.60;;
4754;SDS011;2391;47.212;7.542;2023-02-01T06:09:19;5.03;;;4.30;;
4754;SDS011;2391;47.212;7.542;2023-02-01T06:11:45;6.83;;;5.13;;
4754;SDS011;2391;47.212;7.542;2023-02-01T06:14:10;4.80;;;4.40;;
4754;SDS011;2391;47.212;7.542;2023-02-01T06:16:36;7.80;;;5.60;;
4754;SDS011;2391;47.212;7.542;2023-02-01T06:19:02;6.80;;;5.50;;
4754;SDS011;2391;47.212;7.542;2023-02-01T06:21:27;12.80;;;5.90;;
4754;SDS011;2391;47.212;7.542;2023-02-01T06:23:53;8.73;;;5.57;;
4754;SDS011;2391;47.212;7.542;2023-02-01T06:26:20;10.70;;;5.57;;
4754;SDS011;2391;47.212;7.542;2023-02-01T06:28:46;7.63;;;5.53;;
4754;SDS011;2391;47.212;7.542;2023-02-01T06:31:12;7.23;;;5.23;;
4754;SDS011;2391;47.212;7.542;2023-02-01T06:33:38;10.83;;;5.53;;
4754;SDS011;2391;47.212;7.542;2023-02-01T06:36:05;6.27;;;4.80;;
4754;SDS011;2391;47.212;7.542;2023-02-01T06:38:33;10.00;;;5.20;;
4754;SDS011;2391;47.212;7.542;2023-02-01T06:41:02;10.77;;;5.70;;
4754;SDS011;2391;47.212;7.542;2023-02-01T06:43:28;7.37;;;5.93;;
4754;SDS011;2391;47.212;7.542;2023-02-01T06:45:59;7.03;;;5.90;;
4754;SDS011;2391;47.212;7.542;2023-02-01T06:48:30;7.43;;;6.00;;
4754;SDS011;2391;47.212;7.542;2023-02-01T06:50:56;15.03;;;6.90;;
4754;SDS011;2391;47.212;7.542;2023-02-01T06:53:22;11.43;;;7.00;;
4754;SDS011;2391;47.212;7.542;2023-02-01T06:55:51;9.00;;;6.80;;
4754;SDS011;2391;47.212;7.542;2023-02-01T06:58:22;11.20;;;7.30;;
4754;SDS011;2391;47.212;7.542;2023-02-01T07:00:48;9.30;;;6.27;;
4754;SDS011;2391;47.212;7.542;2023-02-01T07:03:14;11.20;;;7.27;;
4754;SDS011;2391;47.212;7.542;2023-02-01T07:05:40;19.93;;;7.83;;
4754;SDS011;2391;47.212;7.542;2023-02-01T07:08:05;12.17;;;7.50;;
4754;SDS011;2391;47.212;7.542;2023-02-01T07:10:31;11.67;;;7.73;;
4754;SDS011;2391;47.212;7.542;2023-02-01T07:12:59;13.33;;;8.20;;
4754;SDS011;2391;47.212;7.542;2023-02-01T07:15:25;14.40;;;9.27;;
4754;SDS011;2391;47.212;7.542;2023-02-01T07:17:51;13.57;;;9.17;;
4754;SDS011;2391;47.212;7.542;2023-02-01T07:20:18;11.30;;;7.83;;
4754;SDS011;2391;47.212;7.542;2023-02-01T07:22:44;14.60;;;9.00;;
4754;SDS011;2391;47.212;7.542;2023-02-01T07:25:10;13.87;;;9.57;;
4754;SDS011;2391;47.212;7.542;2023-02-01T07:27:36;15.43;;;8.60;;
4754;SDS011;2391;47.212;7.542;2023-02-01T07:30:03;16.90;;;9.30;;
4754;SDS011;2391;47.212;7.542;2023-02-01T07:32:30;14.63;;;10.00;;
4754;SDS011;2391;47.212;7.542;2023-02-01T07:34:56;13.53;;;8.20;;
4754;SDS011;2391;47.212;7.542;2023-02-01T07:37:23;16.40;;;9.33;;
4754;SDS011;2391;47.212;7.542;2023-02-01T07:39:50;17.00;;;9.20;;
4754;SDS011;2391;47.212;7.542;2023-02-01T07:42:18;13.67;;;8.10;;
4754;SDS011;2391;47.212;7.542;2023-02-01T07:44:44;16.97;;;10.30;;
4754;SDS011;2391;47.212;7.542;2023-02-01T07:47:10;17.30;;;10.17;;
4754;SDS011;2391;47.212;7.542;2023-02-01T07:49:36;20.20;;;10.13;;
4754;SDS011;2391;47.212;7.542;2023-02-01T07:52:01;13.17;;;9.27;;
4754;SDS011;2391;47.212;7.542;2023-02-01T07:54:27;15.10;;;8.50;;
4754;SDS011;2391;47.212;7.542;2023-02-01T07:56:53;14.10;;;9.27;;
4754;SDS011;2391;47.212;7.542;2023-02-01T07:59:19;21.60;;;9.43;;
4754;SDS011;2391;47.212;7.542;2023-02-01T08:01:45;17.73;;;9.27;;
4754;SDS011;2391;47.212;7.542;2023-02-01T08:04:11;15.73;;;9.27;;
4754;SDS011;2391;47.212;7.542;2023-02-01T08:06:38;14.63;;;9.73;;
4754;SDS011;2391;47.212;7.542;2023-02-01T08:09:05;17.90;;;10.23;;
4754;SDS011;2391;47.212;7.542;2023-02-01T08:11:34;14.97;;;10.10;;
4754;SDS011;2391;47.212;7.542;2023-02-01T08:14:02;14.87;;;10.30;;
4754;SDS011;2391;47.212;7.542;2023-02-01T08:16:27;14.90;;;9.70;;
4754;SDS011;2391;47.212;7.542;2023-02-01T08:18:53;16.07;;;9.90;;
4754;SDS011;2391;47.212;7.542;2023-02-01T08:21:20;12.87;;;8.50;;
4754;SDS011;2391;47.212;7.542;2023-02-01T08:23:48;16.70;;;9.53;;
4754;SDS011;2391;47.212;7.542;2023-02-01T08:26:15;12.90;;;9.10;;
4754;SDS011;2391;47.212;7.542;2023-02-01T08:28:57;15.30;;;9.33;;
4754;SDS011;2391;47.212;7.542;2023-02-01T08:31:25;15.10;;;8.57;;
4754;SDS011;2391;47.212;7.542;2023-02-01T08:34:01;16.73;;;9.70;;
4754;SDS011;2391;47.212;7.542;2023-02-01T08:36:25;14.60;;;9.43;;
4754;SDS011;2391;47.212;7.542;2023-02-01T08:38:52;11.53;;;8.07;;
4754;SDS011;2391;47.212;7.542;2023-02-01T08:41:19;15.37;;;8.77;;
4754;SDS011;2391;47.212;7.542;2023-02-01T08:43:47;17.67;;;10.30;;
4754;SDS011;2391;47.212;7.542;2023-02-01T08:46:13;17.70;;;9.83;;
4754;SDS011;2391;47.212;7.542;2023-02-01T08:48:40;19.03;;;10.47;;
4754;SDS011;2391;47.212;7.542;2023-02-01T08:51:11;17.43;;;10.10;;
4754;SDS011;2391;47.212;7.542;2023-02-01T08:53:35;16.80;;;10.07;;
4754;SDS011;2391;47.212;7.542;2023-02-01T08:56:02;18.83;;;10.33;;
4754;SDS011;2391;47.212;7.542;2023-02-01T08:58:28;13.17;;;8.40;;
4754;SDS011;2391;47.212;7.542;2023-02-01T09:00:54;14.17;;;9.73;;
4754;SDS011;2391;47.212;7.542;2023-02-01T09:03:20;15.87;;;9.60;;
4754;SDS011;2391;47.212;7.542;2023-02-01T09:05:46;16.10;;;9.57;;
4754;SDS011;2391;47.212;7.542;2023-02-01T09:08:13;16.27;;;9.13;;
4754;SDS011;2391;47.212;7.542;2023-02-01T09:10:40;15.70;;;10.03;;
4754;SDS011;2391;47.212;7.542;2023-02-01T09:13:08;15.73;;;10.77;;
4754;SDS011;2391;47.212;7.542;2023-02-01T09:15:34;15.73;;;9.90;;
4754;SDS011;2391;47.212;7.542;2023-02-01T09:18:00;17.80;;;11.03;;
4754;SDS011;2391;47.212;7.542;2023-02-01T09:20:26;13.73;;;9.80;;
4754;SDS011;2391;47.212;7.542;2023-02-01T09:22:52;20.13;;;10.67;;
4754;SDS011;2391;47.212;7.542;2023-02-01T09:25:20;15.73;;;10.73;;
4754;SDS011;2391;47.212;7.542;2023-02-01T09:27:45;20.90;;;10.87;;
4754;SDS011;2391;47.212;7.542;2023-02-01T09:30:11;16.47;;;10.10;;
4754;SDS011;2391;47.212;7.542;2023-02-01T09:32:37;16.90;;;9.50;;
4754;SDS011;2391;47.212;7.542;2023-02-01T09:35:03;14.20;;;10.30;;
4754;SDS011;2391;47.212;7.542;2023-02-01T09:37:29;16.97;;;10.00;;
4754;SDS011;2391;47.212;7.542;2023-02-01T09:39:55;12.77;;;9.00;;
4754;SDS011;2391;47.212;7.542;2023-02-01T09:47:55;13.53;;;9.10;;
4754;SDS011;2391;47.212;7.542;2023-02-01T09:50:33;12.63;;;7.73;;
4754;SDS011;2391;47.212;7.542;2023-02-01T09:55:50;8.20;;;6.83;;
4754;SDS011;2391;47.212;7.542;2023-02-01T09:58:30;8.67;;;5.73;;
4754;SDS011;2391;47.212;7.542;2023-02-01T10:01:00;9.00;;;7.07;;
4754;SDS011;2391;47.212;7.542;2023-02-01T10:03:29;8.50;;;6.83;;
4754;SDS011;2391;47.212;7.542;2023-02-01T10:17:20;6.50;;;5.43;;
4754;SDS011;2391;47.212;7.542;2023-02-01T10:28:13;6.57;;;5.47;;
4754;SDS011;2391;47.212;7.542;2023-02-01T10:30:42;8.80;;;5.70;;
4754;SDS011;2391;47.212;7.542;2023-02-01T10:33:18;6.50;;;5.80;;
4754;SDS011;2391;47.212;7.542;2023-02-01T10:35:46;9.97;;;6.70;;
4754;SDS011;2391;47.212;7.542;2023-02-01T10:38:22;10.73;;;7.27;;
4754;SDS011;2391;47.212;7.542;2023-02-01T10:40:48;10.07;;;7.20;;
4754;SDS011;2391;47.212;7.542;2023-02-01T10:43:14;11.87;;;6.53;;
4754;SDS011;2391;47.212;7.542;2023-02-01T10:45:40;8.90;;;6.20;;
4754;SDS011;2391;47.212;7.542;2023-02-01T10:48:07;8.33;;;6.53;;
4754;SDS011;2391;47.212;7.542;2023-02-01T10:50:38;7.33;;;6.37;;
4754;SDS011;2391;47.212;7.542;2023-02-01T10:56:10;11.10;;;6.13;;
4754;SDS011;2391;47.212;7.542;2023-02-01T10:58:49;8.53;;;6.10;;
4754;SDS011;2391;47.212;7.542;2023-02-01T11:01:16;8.43;;;5.77;;
4754;SDS011;2391;47.212;7.542;2023-02-01T11:03:51;8.13;;;4.73;;
4754;SDS011;2391;47.212;7.542;2023-02-01T11:06:25;4.90;;;4.00;;
4754;SDS011;2391;47.212;7.542;2023-02-01T11:09:09;4.90;;;4.43;;
4754;SDS011;2391;47.212;7.542;2023-02-01T11:11:34;4.40;;;4.00;;
4754;SDS011;2391;47.212;7.542;2023-02-01T11:14:16;4.00;;;3.60;;
4754;SDS011;2391;47.212;7.542;2023-02-01T11:16:48;4.83;;;4.30;;
4754;SDS011;2391;47.212;7.542;2023-02-01T11:19:16;3.67;;;3.37;;
4754;SDS011;2391;47.212;7.542;2023-02-01T11:21:43;2.57;;;2.10;;
4754;SDS011;2391;47.212;7.542;2023-02-01T11:24:23;3.73;;;2.80;;
4754;SDS011;2391;47.212;7.542;2023-02-01T11:27:05;5.97;;;3.00;;
4754;SDS011;2391;47.212;7.542;2023-02-01T11:29:35;3.17;;;2.87;;
4754;SDS011;2391;47.212;7.542;2023-02-01T11:32:03;3.10;;;2.40;;
4754;SDS011;2391;47.212;7.542;2023-02-01T11:34:53;3.70;;;3.40;;
4754;SDS011;2391;47.212;7.542;2023-02-01T11:37:02;3.33;;;3.03;;
4754;SDS011;2391;47.212;7.542;2023-02-01T11:39:30;3.87;;;3.37;;
4754;SDS011;2391;47.212;7.542;2023-02-01T11:42:14;4.30;;;4.00;;
4754;SDS011;2391;47.212;7.542;2023-02-01T11:44:43;5.20;;;3.17;;
4754;SDS011;2391;47.212;7.542;2023-02-01T11:49:52;5.10;;;3.93;;
4754;SDS011;2391;47.212;7.542;2023-02-01T11:55:16;3.40;;;3.10;;
4754;SDS011;2391;47.212;7.542;2023-02-01T12:12:05;2.43;;;2.23;;
4754;SDS011;2391;47.212;7.542;2023-02-01T12:14:46;2.63;;;2.43;;
4754;SDS011;2391;47.212;7.542;2023-02-01T12:20:15;2.90;;;2.70;;
4754;SDS011;2391;47.212;7.542;2023-02-01T12:23:02;3.20;;;2.90;;
4754;SDS011;2391;47.212;7.542;2023-02-01T12:34:15;7.17;;;2.87;;
4754;SDS011;2391;47.212;7.542;2023-02-01T12:37:09;3.33;;;3.03;;
4754;SDS011;2391;47.212;7.542;2023-02-01T12:39:44;4.17;;;2.47;;
4754;SDS011;2391;47.212;7.542;2023-02-01T12:47:47;2.17;;;1.83;;
4754;SDS011;2391;47.212;7.542;2023-02-01T12:50:18;1.80;;;1.70;;
4754;SDS011;2391;47.212;7.542;2023-02-01T12:52:47;2.53;;;1.50;;
4754;SDS011;2391;47.212;7.542;2023-02-01T12:55:17;1.50;;;1.40;;
4754;SDS011;2391;47.212;7.542;2023-02-01T12:57:46;2.20;;;2.00;;
4754;SDS011;2391;47.212;7.542;2023-02-01T13:00:26;3.77;;;1.87;;
4754;SDS011;2391;47.212;7.542;2023-02-01T13:03:59;2.83;;;1.63;;
4754;SDS011;2391;47.212;7.542;2023-02-01T13:05:54;2.10;;;2.00;;
4754;SDS011;2391;47.212;7.542;2023-02-01T13:08:24;2.70;;;2.00;;
4754;SDS011;2391;47.212;7.542;2023-02-01T13:11:00;2.20;;;2.10;;
4754;SDS011;2391;47.212;7.542;2023-02-01T13:13:43;3.43;;;1.73;;
4754;SDS011;2391;47.212;7.542;2023-02-01T13:16:27;2.73;;;1.63;;
4754;SDS011;2391;47.212;7.542;2023-02-01T13:18:45;2.50;;;1.83;;
4754;SDS011;2391;47.212;7.542;2023-02-01T13:21:14;1.50;;;1.40;;
4754;SDS011;2391;47.212;7.542;2023-02-01T13:23:44;1.67;;;1.20;;
4754;SDS011;2391;47.212;7.542;2023-02-01T13:26:12;1.63;;;1.40;;
4754;SDS011;2391;47.212;7.542;2023-02-01T13:28:45;2.40;;;1.00;;
4754;SDS011;2391;47.212;7.542;2023-02-01T13:31:29;1.00;;;0.90;;
4754;SDS011;2391;47.212;7.542;2023-02-01T13:39:43;1.00;;;0.80;;
4754;SDS011;2391;47.212;7.542;2023-02-01T13:42:21;1.20;;;0.70;;
4754;SDS011;2391;47.212;7.542;2023-02-01T13:45:02;6.73;;;1.07;;
4754;SDS011;2391;47.212;7.542;2023-02-01T13:47:40;3.03;;;0.97;;
4754;SDS011;2391;47.212;7.542;2023-02-01T13:52:56;5.33;;;0.90;;
4754;SDS011;2391;47.212;7.542;2023-02-01T13:55:29;2.90;;;1.00;;
4754;SDS011;2391;47.212;7.542;2023-02-01T13:58:01;1.67;;;0.80;;
4754;SDS011;2391;47.212;7.542;2023-02-01T14:00:31;1.20;;;0.87;;
4754;SDS011;2391;47.212;7.542;2023-02-01T14:26:25;1.37;;;0.70;;
4754;SDS011;2391;47.212;7.542;2023-02-01T14:31:53;0.80;;;0.80;;
4754;SDS011;2391;47.212;7.542;2023-02-01T14:37:11;2.73;;;1.00;;
4754;SDS011;2391;47.212;7.542;2023-02-01T14:42:22;2.60;;;0.80;;
4754;SDS011;2391;47.212;7.542;2023-02-01T14:44:54;2.90;;;0.80;;
4754;SDS011;2391;47.212;7.542;2023-02-01T14:47:39;4.50;;;0.80;;
4754;SDS011;2391;47.212;7.542;2023-02-01T14:55:40;2.60;;;0.90;;
4754;SDS011;2391;47.212;7.542;2023-02-01T15:00:59;1.30;;;0.90;;
4754;SDS011;2391;47.212;7.542;2023-02-01T15:14:35;4.00;;;1.00;;
4754;SDS011;2391;47.212;7.542;2023-02-01T15:17:16;1.90;;;1.10;;
4754;SDS011;2391;47.212;7.542;2023-02-01T15:19:57;4.57;;;1.00;;
4754;SDS011;2391;47.212;7.542;2023-02-01T15:22:21;2.10;;;0.80;;
4754;SDS011;2391;47.212;7.542;2023-02-01T15:24:56;3.00;;;0.80;;
4754;SDS011;2391;47.212;7.542;2023-02-01T15:27:25;2.40;;;1.10;;
4754;SDS011;2391;47.212;7.542;2023-02-01T15:29:52;0.90;;;0.80;;
4754;SDS011;2391;47.212;7.542;2023-02-01T15:32:31;1.30;;;0.70;;
4754;SDS011;2391;47.212;7.542;2023-02-01T15:35:04;1.67;;;0.90;;
4754;SDS011;2391;47.212;7.542;2023-02-01T15:37:30;4.80;;;0.90;;
4754;SDS011;2391;47.212;7.542;2023-02-01T15:42:54;1.13;;;0.70;;
4754;SDS011;2391;47.212;7.542;2023-02-01T15:45:25;2.17;;;0.90;;
4754;SDS011;2391;47.212;7.542;2023-02-01T15:47:53;3.43;;;1.03;;
4754;SDS011;2391;47.212;7.542;2023-02-01T15:50:21;0.97;;;0.80;;
4754;SDS011;2391;47.212;7.542;2023-02-01T15:52:48;1.80;;;0.97;;
4754;SDS011;2391;47.212;7.542;2023-02-01T15:55:17;4.50;;;1.00;;
4754;SDS011;2391;47.212;7.542;2023-02-01T15:57:46;3.67;;;1.00;;
4754;SDS011;2391;47.212;7.542;2023-02-01T16:00:21;5.90;;;0.80;;
4754;SDS011;2391;47.212;7.542;2023-02-01T16:02:56;1.43;;;0.97;;
4754;SDS011;2391;47.212;7.542;2023-02-01T16:08:15;1.80;;;1.03;;
4754;SDS011;2391;47.212;7.542;2023-02-01T16:10:43;3.97;;;0.90;;
4754;SDS011;2391;47.212;7.542;2023-02-01T16:13:11;1.30;;;0.90;;
4754;SDS011;2391;47.212;7.542;2023-02-01T16:15:38;6.33;;;1.23;;
4754;SDS011;2391;47.212;7.542;2023-02-01T16:18:04;3.87;;;1.13;;
4754;SDS011;2391;47.212;7.542;2023-02-01T16:20:33;3.23;;;0.90;;
4754;SDS011;2391;47.212;7.542;2023-02-01T16:23:01;2.27;;;0.80;;
4754;SDS011;2391;47.212;7.542;2023-02-01T16:25:28;1.40;;;0.83;;
4754;SDS011;2391;47.212;7.542;2023-02-01T16:27:54;3.57;;;1.40;;
4754;SDS011;2391;47.212;7.542;2023-02-01T16:30:20;3.10;;;1.00;;
4754;SDS011;2391;47.212;7.542;2023-02-01T16:32:53;1.00;;;0.90;;
4754;SDS011;2391;47.212;7.542;2023-02-01T16:35:30;2.13;;;0.90;;
4754;SDS011;2391;47.212;7.542;2023-02-01T16:37:59;2.73;;;1.10;;
4754;SDS011;2391;47.212;7.542;2023-02-01T16:40:25;3.73;;;1.20;;
4754;SDS011;2391;47.212;7.542;2023-02-01T16:42:52;3.67;;;1.30;;
4754;SDS011;2391;47.212;7.542;2023-02-01T16:45:22;3.73;;;0.90;;
4754;SDS011;2391;47.212;7.542;2023-02-01T16:47:51;1.93;;;1.00;;
4754;SDS011;2391;47.212;7.542;2023-02-01T16:50:20;1.10;;;1.00;;
4754;SDS011;2391;47.212;7.542;2023-02-01T16:52:48;2.73;;;1.50;;
4754;SDS011;2391;47.212;7.542;2023-02-01T16:55:15;1.77;;;1.00;;
4754;SDS011;2391;47.212;7.542;2023-02-01T16:57:43;3.33;;;1.53;;
4754;SDS011;2391;47.212;7.542;2023-02-01T17:00:10;3.43;;;1.77;;
4754;SDS011;2391;47.212;7.542;2023-02-01T17:02:38;1.13;;;1.07;;
4754;SDS011;2391;47.212;7.542;2023-02-01T17:05:05;1.90;;;0.90;;
4754;SDS011;2391;47.212;7.542;2023-02-01T17:07:31;4.40;;;1.50;;
4754;SDS011;2391;47.212;7.542;2023-02-01T17:09:57;3.80;;;1.03;;
4754;SDS011;2391;47.212;7.542;2023-02-01T17:12:28;3.07;;;1.23;;
4754;SDS011;2391;47.212;7.542;2023-02-01T17:14:55;0.80;;;0.80;;
4754;SDS011;2391;47.212;7.542;2023-02-01T17:17:23;3.07;;;0.90;;
4754;SDS011;2391;47.212;7.542;2023-02-01T17:19:51;7.20;;;1.53;;
4754;SDS011;2391;47.212;7.542;2023-02-01T17:22:19;3.20;;;1.13;;
4754;SDS011;2391;47.212;7.542;2023-02-01T17:24:45;4.60;;;1.20;;
4754;SDS011;2391;47.212;7.542;2023-02-01T17:27:12;4.03;;;1.50;;
4754;SDS011;2391;47.212;7.542;2023-02-01T17:29:38;3.00;;;1.40;;
4754;SDS011;2391;47.212;7.542;2023-02-01T17:32:05;2.20;;;1.03;;
4754;SDS011;2391;47.212;7.542;2023-02-01T17:34:34;2.43;;;1.17;;
4754;SDS011;2391;47.212;7.542;2023-02-01T17:37:00;2.70;;;1.00;;
4754;SDS011;2391;47.212;7.542;2023-02-01T17:39:26;1.23;;;0.93;;
4754;SDS011;2391;47.212;7.542;2023-02-01T17:42:10;3.17;;;1.07;;
4754;SDS011;2391;47.212;7.542;2023-02-01T17:44:36;1.67;;;0.90;;
4754;SDS011;2391;47.212;7.542;2023-02-01T17:47:02;4.70;;;1.40;;
4754;SDS011;2391;47.212;7.542;2023-02-01T17:49:28;2.77;;;1.10;;
4754;SDS011;2391;47.212;7.542;2023-02-01T17:51:55;6.00;;;1.27;;
4754;SDS011;2391;47.212;7.542;2023-02-01T17:54:21;1.53;;;1.03;;
4754;SDS011;2391;47.212;7.542;2023-02-01T17:56:47;2.97;;;1.20;;
4754;SDS011;2391;47.212;7.542;2023-02-01T17:59:14;6.77;;;1.40;;
4754;SDS011;2391;47.212;7.542;2023-02-01T18:01:40;5.40;;;0.90;;
4754;SDS011;2391;47.212;7.542;2023-02-01T18:04:08;2.20;;;1.20;;
4754;SDS011;2391;47.212;7.542;2023-02-01T18:06:41;6.57;;;1.70;;
4754;SDS011;2391;47.212;7.542;2023-02-01T18:09:07;9.83;;;1.50;;
4754;SDS011;2391;47.212;7.542;2023-02-01T18:11:33;2.83;;;2.10;;
4754;SDS011;2391;47.212;7.542;2023-02-01T18:13:59;18.50;;;2.63;;
4754;SDS011;2391;47.212;7.542;2023-02-01T18:16:26;6.10;;;1.33;;
4754;SDS011;2391;47.212;7.542;2023-02-01T18:18:53;1.53;;;1.13;;
4754;SDS011;2391;47.212;7.542;2023-02-01T18:21:21;6.00;;;1.10;;
4754;SDS011;2391;47.212;7.542;2023-02-01T18:23:48;6.83;;;1.30;;